sensor_id;sensor_type;location;lat;lon;timestamp;P1;durP1;ratioP1;P2;durP2;ratioP2
18499;SDS011;9379;52.134;11.576;2023-04-25T00:00:01;151.93;;;89.35;;
18499;SDS011;9379;52.134;11.576;2023-04-25T00:02:31;178.35;;;97.60;;
18499;SDS011;9379;52.134;11.576;2023-04-25T00:04:59;81.57;;;47.67;;
18499;SDS011;9379;52.134;11.576;2023-04-25T00:07:30;106.28;;;64.20;;
18499;SDS011;9379;52.134;11.576;2023-04-25T00:09:58;48.17;;;30.80;;
18499;SDS011;9379;52.134;11.576;2023-04-25T00:12:25;63.60;;;50.83;;
18499;SDS011;9379;52.134;11.576;2023-04-25T00:14:53;33.70;;;27.75;;
18499;SDS011;9379;52.134;11.576;2023-04-25T00:17:22;17.42;;;15.60;;
18499;SDS011;9379;52.134;11.576;2023-04-25T00:19:49;9.23;;;8.40;;
18499;SDS011;9379;52.134;11.576;2023-04-25T00:22:16;7.97;;;4.22;;
18499;SDS011;9379;52.134;11.576;2023-04-25T00:24:43;6.00;;;3.78;;
18499;SDS011;9379;52.134;11.576;2023-04-25T00:27:11;4.22;;;3.42;;
18499;SDS011;9379;52.134;11.576;2023-04-25T00:29:38;6.93;;;3.22;;
18499;SDS011;9379;52.134;11.576;2023-04-25T00:32:05;2.75;;;2.55;;
18499;SDS011;9379;52.134;11.576;2023-04-25T00:34:31;2.72;;;2.42;;
18499;SDS011;9379;52.134;11.576;2023-04-25T00:36:58;5.57;;;3.38;;
18499;SDS011;9379;52.134;11.576;2023-04-25T00:39:27;6.22;;;3.25;;
18499;SDS011;9379;52.134;11.576;2023-04-25T00:41:53;6.22;;;3.75;;
18499;SDS011;9379;52.134;11.576;2023-04-25T00:44:22;5.28;;;2.05;;
18499;SDS011;9379;52.134;11.576;2023-04-25T00:46:51;4.47;;;3.58;;
18499;SDS011;9379;52.134;11.576;2023-04-25T00:49:20;2.78;;;2.58;;
18499;SDS011;9379;52.134;11.576;2023-04-25T00:51:46;3.20;;;2.78;;
18499;SDS011;9379;52.134;11.576;2023-04-25T00:54:14;4.00;;;3.65;;
18499;SDS011;9379;52.134;11.576;2023-04-25T00:56:41;2.55;;;2.35;;
18499;SDS011;9379;52.134;11.576;2023-04-25T00:59:10;4.40;;;2.92;;
18499;SDS011;9379;52.134;11.576;2023-04-25T01:01:39;5.00;;;2.90;;
18499;SDS011;9379;52.134;11.576;2023-04-25T01:04:07;6.50;;;2.92;;
18499;SDS011;9379;52.134;11.576;2023-04-25T01:06:34;5.05;;;2.85;;
18499;SDS011;9379;52.134;11.576;2023-04-25T01:09:02;3.78;;;3.13;;
18499;SDS011;9379;52.134;11.576;2023-04-25T01:11:30;5.25;;;3.22;;
18499;SDS011;9379;52.134;11.576;2023-04-25T01:13:57;5.63;;;4.30;;
18499;SDS011;9379;52.134;11.576;2023-04-25T01:16:23;9.68;;;4.18;;
18499;SDS011;9379;52.134;11.576;2023-04-25T01:18:52;3.58;;;3.28;;
18499;SDS011;9379;52.134;11.576;2023-04-25T01:21:21;7.10;;;3.25;;
18499;SDS011;9379;52.134;11.576;2023-04-25T01:23:51;3.85;;;3.50;;
18499;SDS011;9379;52.134;11.576;2023-04-25T01:26:18;5.32;;;3.60;;
18499;SDS011;9379;52.134;11.576;2023-04-25T01:28:46;8.40;;;3.92;;
18499;SDS011;9379;52.134;11.576;2023-04-25T01:31:14;4.93;;;2.97;;
18499;SDS011;9379;52.134;11.576;2023-04-25T01:33:41;5.82;;;4.07;;
18499;SDS011;9379;52.134;11.576;2023-04-25T01:36:08;2.50;;;2.03;;
18499;SDS011;9379;52.134;11.576;2023-04-25T01:38:36;2.53;;;2.33;;
18499;SDS011;9379;52.134;11.576;2023-04-25T01:41:03;8.48;;;4.40;;
18499;SDS011;9379;52.134;11.576;2023-04-25T01:43:31;2.35;;;2.17;;
18499;SDS011;9379;52.134;11.576;2023-04-25T01:45:58;4.47;;;2.50;;
18499;SDS011;9379;52.134;11.576;2023-04-25T01:48:25;9.00;;;3.03;;
18499;SDS011;9379;52.134;11.576;2023-04-25T01:50:52;3.30;;;2.75;;
18499;SDS011;9379;52.134;11.576;2023-04-25T01:53:19;2.17;;;1.98;;
18499;SDS011;9379;52.134;11.576;2023-04-25T01:55:47;3.95;;;2.35;;
18499;SDS011;9379;52.134;11.576;2023-04-25T01:58:14;7.05;;;2.72;;
18499;SDS011;9379;52.134;11.576;2023-04-25T02:00:41;3.72;;;3.38;;
18499;SDS011;9379;52.134;11.576;2023-04-25T02:03:08;2.35;;;2.03;;
18499;SDS011;9379;52.134;11.576;2023-04-25T02:05:35;7.45;;;3.15;;
18499;SDS011;9379;52.134;11.576;2023-04-25T02:08:02;2.92;;;2.63;;
18499;SDS011;9379;52.134;11.576;2023-04-25T02:10:31;5.22;;;2.65;;
18499;SDS011;9379;52.134;11.576;2023-04-25T02:12:59;4.93;;;3.15;;
18499;SDS011;9379;52.134;11.576;2023-04-25T02:15:26;13.10;;;4.38;;
18499;SDS011;9379;52.134;11.576;2023-04-25T02:17:53;4.53;;;3.25;;
18499;SDS011;9379;52.134;11.576;2023-04-25T02:20:20;7.47;;;2.15;;
18499;SDS011;9379;52.134;11.576;2023-04-25T02:22:48;7.30;;;2.97;;
18499;SDS011;9379;52.134;11.576;2023-04-25T02:25:15;2.53;;;2.30;;
18499;SDS011;9379;52.134;11.576;2023-04-25T02:27:42;4.60;;;3.22;;
18499;SDS011;9379;52.134;11.576;2023-04-25T02:30:10;11.55;;;4.38;;
18499;SDS011;9379;52.134;11.576;2023-04-25T02:32:37;7.63;;;3.47;;
18499;SDS011;9379;52.134;11.576;2023-04-25T02:35:05;4.68;;;3.00;;
18499;SDS011;9379;52.134;11.576;2023-04-25T02:37:32;2.33;;;2.13;;
18499;SDS011;9379;52.134;11.576;2023-04-25T02:40:00;3.15;;;2.30;;
18499;SDS011;9379;52.134;11.576;2023-04-25T02:42:28;4.22;;;2.95;;
18499;SDS011;9379;52.134;11.576;2023-04-25T02:44:55;3.30;;;2.88;;
18499;SDS011;9379;52.134;11.576;2023-04-25T02:47:23;8.65;;;3.85;;
18499;SDS011;9379;52.134;11.576;2023-04-25T02:49:50;4.40;;;3.60;;
18499;SDS011;9379;52.134;11.576;2023-04-25T02:52:16;4.97;;;3.60;;
18499;SDS011;9379;52.134;11.576;2023-04-25T02:54:44;5.18;;;4.03;;
18499;SDS011;9379;52.134;11.576;2023-04-25T02:57:10;5.53;;;3.28;;
18499;SDS011;9379;52.134;11.576;2023-04-25T02:59:37;3.70;;;3.40;;
18499;SDS011;9379;52.134;11.576;2023-04-25T03:02:04;4.28;;;3.42;;
18499;SDS011;9379;52.134;11.576;2023-04-25T03:04:32;5.38;;;2.88;;
18499;SDS011;9379;52.134;11.576;2023-04-25T03:06:59;7.20;;;3.58;;
18499;SDS011;9379;52.134;11.576;2023-04-25T03:09:26;4.30;;;3.10;;
18499;SDS011;9379;52.134;11.576;2023-04-25T03:11:53;3.88;;;3.53;;
18499;SDS011;9379;52.134;11.576;2023-04-25T03:14:19;4.63;;;4.00;;
18499;SDS011;9379;52.134;11.576;2023-04-25T03:16:46;17.00;;;5.55;;
18499;SDS011;9379;52.134;11.576;2023-04-25T03:19:13;8.15;;;3.75;;
18499;SDS011;9379;52.134;11.576;2023-04-25T03:21:42;5.65;;;3.55;;
18499;SDS011;9379;52.134;11.576;2023-04-25T03:24:09;10.45;;;5.68;;
18499;SDS011;9379;52.134;11.576;2023-04-25T03:26:37;6.47;;;4.25;;
18499;SDS011;9379;52.134;11.576;2023-04-25T03:29:03;3.88;;;3.50;;
18499;SDS011;9379;52.134;11.576;2023-04-25T03:31:33;8.82;;;5.45;;
18499;SDS011;9379;52.134;11.576;2023-04-25T03:34:00;4.03;;;2.97;;
18499;SDS011;9379;52.134;11.576;2023-04-25T03:36:27;6.63;;;3.33;;
18499;SDS011;9379;52.134;11.576;2023-04-25T03:38:55;5.78;;;4.22;;
18499;SDS011;9379;52.134;11.576;2023-04-25T03:41:22;5.57;;;3.80;;
18499;SDS011;9379;52.134;11.576;2023-04-25T03:43:48;6.93;;;4.25;;
18499;SDS011;9379;52.134;11.576;2023-04-25T03:46:15;9.48;;;4.22;;
18499;SDS011;9379;52.134;11.576;2023-04-25T03:48:42;10.60;;;4.05;;
18499;SDS011;9379;52.134;11.576;2023-04-25T03:51:09;3.08;;;2.80;;
18499;SDS011;9379;52.134;11.576;2023-04-25T03:53:36;6.68;;;3.38;;
18499;SDS011;9379;52.134;11.576;2023-04-25T03:56:04;10.88;;;4.28;;
18499;SDS011;9379;52.134;11.576;2023-04-25T03:58:31;5.38;;;3.55;;
18499;SDS011;9379;52.134;11.576;2023-04-25T04:00:58;10.15;;;4.07;;
18499;SDS011;9379;52.134;11.576;2023-04-25T04:03:25;4.68;;;2.97;;
18499;SDS011;9379;52.134;11.576;2023-04-25T04:05:52;5.07;;;3.95;;
18499;SDS011;9379;52.134;11.576;2023-04-25T04:08:18;4.00;;;3.60;;
18499;SDS011;9379;52.134;11.576;2023-04-25T04:10:45;2.97;;;2.78;;
18499;SDS011;9379;52.134;11.576;2023-04-25T04:13:13;5.93;;;3.63;;
18499;SDS011;9379;52.134;11.576;2023-04-25T04:15:40;9.90;;;3.97;;
18499;SDS011;9379;52.134;11.576;2023-04-25T04:18:07;2.50;;;2.30;;
18499;SDS011;9379;52.134;11.576;2023-04-25T04:20:34;6.28;;;3.28;;
18499;SDS011;9379;52.134;11.576;2023-04-25T04:23:01;4.03;;;3.72;;
18499;SDS011;9379;52.134;11.576;2023-04-25T04:25:28;5.43;;;3.88;;
18499;SDS011;9379;52.134;11.576;2023-04-25T04:27:55;10.02;;;5.60;;
18499;SDS011;9379;52.134;11.576;2023-04-25T04:30:24;8.52;;;4.20;;
18499;SDS011;9379;52.134;11.576;2023-04-25T04:32:54;5.72;;;2.92;;
18499;SDS011;9379;52.134;11.576;2023-04-25T04:35:21;3.20;;;2.60;;
18499;SDS011;9379;52.134;11.576;2023-04-25T04:37:48;8.43;;;4.20;;
18499;SDS011;9379;52.134;11.576;2023-04-25T04:40:17;3.38;;;2.92;;
18499;SDS011;9379;52.134;11.576;2023-04-25T04:42:45;4.90;;;4.07;;
18499;SDS011;9379;52.134;11.576;2023-04-25T04:45:12;4.70;;;2.08;;
18499;SDS011;9379;52.134;11.576;2023-04-25T04:47:40;8.50;;;4.75;;
18499;SDS011;9379;52.134;11.576;2023-04-25T04:50:08;8.07;;;4.55;;
18499;SDS011;9379;52.134;11.576;2023-04-25T04:52:36;9.98;;;4.25;;
18499;SDS011;9379;52.134;11.576;2023-04-25T04:55:03;4.40;;;3.97;;
18499;SDS011;9379;52.134;11.576;2023-04-25T04:57:31;6.07;;;4.97;;
18499;SDS011;9379;52.134;11.576;2023-04-25T04:59:58;5.10;;;4.60;;
18499;SDS011;9379;52.134;11.576;2023-04-25T05:02:25;6.40;;;4.07;;
18499;SDS011;9379;52.134;11.576;2023-04-25T05:04:55;7.10;;;4.28;;
18499;SDS011;9379;52.134;11.576;2023-04-25T05:07:22;9.82;;;5.50;;
18499;SDS011;9379;52.134;11.576;2023-04-25T05:09:50;5.82;;;5.25;;
18499;SDS011;9379;52.134;11.576;2023-04-25T05:12:16;7.53;;;4.88;;
18499;SDS011;9379;52.134;11.576;2023-04-25T05:14:43;5.70;;;4.75;;
18499;SDS011;9379;52.134;11.576;2023-04-25T05:17:10;5.85;;;4.78;;
18499;SDS011;9379;52.134;11.576;2023-04-25T05:19:37;8.77;;;5.10;;
18499;SDS011;9379;52.134;11.576;2023-04-25T05:22:05;4.78;;;4.35;;
18499;SDS011;9379;52.134;11.576;2023-04-25T05:24:32;7.72;;;5.65;;
18499;SDS011;9379;52.134;11.576;2023-04-25T05:26:59;15.32;;;10.95;;
18499;SDS011;9379;52.134;11.576;2023-04-25T05:29:26;10.63;;;6.97;;
18499;SDS011;9379;52.134;11.576;2023-04-25T05:31:52;6.70;;;5.57;;
18499;SDS011;9379;52.134;11.576;2023-04-25T05:34:19;7.70;;;4.53;;
18499;SDS011;9379;52.134;11.576;2023-04-25T05:36:46;6.93;;;5.60;;
18499;SDS011;9379;52.134;11.576;2023-04-25T05:39:15;6.40;;;4.20;;
18499;SDS011;9379;52.134;11.576;2023-04-25T05:41:42;3.65;;;3.35;;
18499;SDS011;9379;52.134;11.576;2023-04-25T05:44:09;3.58;;;3.03;;
18499;SDS011;9379;52.134;11.576;2023-04-25T05:46:36;3.58;;;2.47;;
18499;SDS011;9379;52.134;11.576;2023-04-25T05:49:03;3.17;;;2.58;;
18499;SDS011;9379;52.134;11.576;2023-04-25T05:51:30;4.05;;;2.55;;
18499;SDS011;9379;52.134;11.576;2023-04-25T05:53:57;2.80;;;2.60;;
18499;SDS011;9379;52.134;11.576;2023-04-25T05:56:25;3.72;;;2.40;;
18499;SDS011;9379;52.134;11.576;2023-04-25T05:58:52;3.97;;;2.92;;
18499;SDS011;9379;52.134;11.576;2023-04-25T06:01:19;8.23;;;3.65;;
18499;SDS011;9379;52.134;11.576;2023-04-25T06:03:45;4.15;;;2.33;;
18499;SDS011;9379;52.134;11.576;2023-04-25T06:06:12;1.38;;;1.27;;
18499;SDS011;9379;52.134;11.576;2023-04-25T06:08:39;5.53;;;2.75;;
18499;SDS011;9379;52.134;11.576;2023-04-25T06:11:06;4.05;;;1.70;;
18499;SDS011;9379;52.134;11.576;2023-04-25T06:13:34;5.78;;;2.90;;
18499;SDS011;9379;52.134;11.576;2023-04-25T06:16:01;3.42;;;2.83;;
18499;SDS011;9379;52.134;11.576;2023-04-25T06:18:28;2.38;;;2.03;;
18499;SDS011;9379;52.134;11.576;2023-04-25T06:20:54;1.52;;;1.42;;
18499;SDS011;9379;52.134;11.576;2023-04-25T06:23:21;8.57;;;2.88;;
18499;SDS011;9379;52.134;11.576;2023-04-25T06:25:48;2.35;;;1.60;;
18499;SDS011;9379;52.134;11.576;2023-04-25T06:28:15;3.75;;;2.63;;
18499;SDS011;9379;52.134;11.576;2023-04-25T06:30:43;3.00;;;1.80;;
18499;SDS011;9379;52.134;11.576;2023-04-25T06:33:10;4.40;;;2.33;;
18499;SDS011;9379;52.134;11.576;2023-04-25T06:35:37;12.60;;;3.40;;
18499;SDS011;9379;52.134;11.576;2023-04-25T06:38:03;4.47;;;2.47;;
18499;SDS011;9379;52.134;11.576;2023-04-25T06:40:30;8.30;;;2.40;;
18499;SDS011;9379;52.134;11.576;2023-04-25T06:42:57;4.05;;;3.13;;
18499;SDS011;9379;52.134;11.576;2023-04-25T06:45:24;11.70;;;2.92;;
18499;SDS011;9379;52.134;11.576;2023-04-25T06:47:52;12.43;;;3.25;;
18499;SDS011;9379;52.134;11.576;2023-04-25T06:50:18;8.07;;;2.97;;
18499;SDS011;9379;52.134;11.576;2023-04-25T06:52:46;15.63;;;4.57;;
18499;SDS011;9379;52.134;11.576;2023-04-25T06:55:13;8.55;;;3.67;;
18499;SDS011;9379;52.134;11.576;2023-04-25T06:57:40;6.63;;;3.17;;
18499;SDS011;9379;52.134;11.576;2023-04-25T07:00:07;9.02;;;3.53;;
18499;SDS011;9379;52.134;11.576;2023-04-25T07:02:34;10.10;;;3.90;;
18499;SDS011;9379;52.134;11.576;2023-04-25T07:05:03;2.63;;;2.42;;
18499;SDS011;9379;52.134;11.576;2023-04-25T07:07:30;20.23;;;5.28;;
18499;SDS011;9379;52.134;11.576;2023-04-25T07:09:57;3.30;;;3.05;;
18499;SDS011;9379;52.134;11.576;2023-04-25T07:12:24;12.25;;;2.88;;
18499;SDS011;9379;52.134;11.576;2023-04-25T07:14:51;13.82;;;4.45;;
18499;SDS011;9379;52.134;11.576;2023-04-25T07:17:17;10.95;;;3.33;;
18499;SDS011;9379;52.134;11.576;2023-04-25T07:19:44;10.52;;;4.13;;
18499;SDS011;9379;52.134;11.576;2023-04-25T07:22:12;6.22;;;3.38;;
18499;SDS011;9379;52.134;11.576;2023-04-25T07:24:39;5.20;;;2.58;;
18499;SDS011;9379;52.134;11.576;2023-04-25T07:27:06;6.97;;;3.65;;
18499;SDS011;9379;52.134;11.576;2023-04-25T07:29:33;9.13;;;3.08;;
18499;SDS011;9379;52.134;11.576;2023-04-25T07:32:03;24.92;;;6.80;;
18499;SDS011;9379;52.134;11.576;2023-04-25T07:34:30;6.95;;;2.45;;
18499;SDS011;9379;52.134;11.576;2023-04-25T07:36:57;2.88;;;2.55;;
18499;SDS011;9379;52.134;11.576;2023-04-25T07:39:26;7.65;;;2.53;;
18499;SDS011;9379;52.134;11.576;2023-04-25T07:41:52;1.33;;;1.23;;
18499;SDS011;9379;52.134;11.576;2023-04-25T07:44:19;11.65;;;2.83;;
18499;SDS011;9379;52.134;11.576;2023-04-25T07:46:46;13.02;;;2.55;;
18499;SDS011;9379;52.134;11.576;2023-04-25T07:49:13;3.05;;;2.28;;
18499;SDS011;9379;52.134;11.576;2023-04-25T07:51:40;8.23;;;2.38;;
18499;SDS011;9379;52.134;11.576;2023-04-25T07:54:08;7.45;;;3.28;;
18499;SDS011;9379;52.134;11.576;2023-04-25T07:56:36;8.25;;;3.40;;
18499;SDS011;9379;52.134;11.576;2023-04-25T07:59:03;2.80;;;2.13;;
18499;SDS011;9379;52.134;11.576;2023-04-25T08:01:30;2.58;;;1.52;;
18499;SDS011;9379;52.134;11.576;2023-04-25T08:03:57;6.45;;;3.22;;
18499;SDS011;9379;52.134;11.576;2023-04-25T08:06:24;19.65;;;2.70;;
18499;SDS011;9379;52.134;11.576;2023-04-25T08:08:50;4.28;;;2.22;;
18499;SDS011;9379;52.134;11.576;2023-04-25T08:11:17;5.70;;;3.10;;
18499;SDS011;9379;52.134;11.576;2023-04-25T08:13:45;4.97;;;2.63;;
18499;SDS011;9379;52.134;11.576;2023-04-25T08:16:12;8.23;;;2.22;;
18499;SDS011;9379;52.134;11.576;2023-04-25T08:18:39;4.70;;;2.10;;
18499;SDS011;9379;52.134;11.576;2023-04-25T08:21:06;2.97;;;2.65;;
18499;SDS011;9379;52.134;11.576;2023-04-25T08:23:34;5.90;;;3.85;;
18499;SDS011;9379;52.134;11.576;2023-04-25T08:26:00;3.65;;;2.08;;
18499;SDS011;9379;52.134;11.576;2023-04-25T08:28:28;3.67;;;2.20;;
18499;SDS011;9379;52.134;11.576;2023-04-25T08:30:56;8.20;;;3.08;;
18499;SDS011;9379;52.134;11.576;2023-04-25T08:33:23;6.93;;;2.05;;
18499;SDS011;9379;52.134;11.576;2023-04-25T08:35:50;6.72;;;2.50;;
18499;SDS011;9379;52.134;11.576;2023-04-25T08:38:17;3.75;;;2.38;;
18499;SDS011;9379;52.134;11.576;2023-04-25T08:40:44;18.67;;;3.17;;
18499;SDS011;9379;52.134;11.576;2023-04-25T08:43:16;1.80;;;1.40;;
18499;SDS011;9379;52.134;11.576;2023-04-25T08:45:45;4.03;;;1.85;;
18499;SDS011;9379;52.134;11.576;2023-04-25T08:48:14;3.33;;;2.10;;
18499;SDS011;9379;52.134;11.576;2023-04-25T08:50:44;4.75;;;1.85;;
18499;SDS011;9379;52.134;11.576;2023-04-25T08:53:16;9.07;;;2.60;;
18499;SDS011;9379;52.134;11.576;2023-04-25T08:55:45;3.80;;;2.05;;
18499;SDS011;9379;52.134;11.576;2023-04-25T08:58:13;5.65;;;2.13;;
18499;SDS011;9379;52.134;11.576;2023-04-25T09:00:40;3.03;;;2.10;;
18499;SDS011;9379;52.134;11.576;2023-04-25T09:03:07;3.42;;;1.80;;
18499;SDS011;9379;52.134;11.576;2023-04-25T09:05:35;2.25;;;1.63;;
18499;SDS011;9379;52.134;11.576;2023-04-25T09:08:02;4.15;;;1.95;;
18499;SDS011;9379;52.134;11.576;2023-04-25T09:10:29;6.97;;;1.45;;
18499;SDS011;9379;52.134;11.576;2023-04-25T09:13:02;3.58;;;1.92;;
18499;SDS011;9379;52.134;11.576;2023-04-25T09:15:30;4.72;;;2.63;;
18499;SDS011;9379;52.134;11.576;2023-04-25T09:17:57;4.60;;;2.67;;
18499;SDS011;9379;52.134;11.576;2023-04-25T09:20:25;1.13;;;1.00;;
18499;SDS011;9379;52.134;11.576;2023-04-25T09:23:02;4.60;;;1.77;;
18499;SDS011;9379;52.134;11.576;2023-04-25T09:25:33;4.30;;;2.05;;
18499;SDS011;9379;52.134;11.576;2023-04-25T09:28:04;4.60;;;2.30;;
18499;SDS011;9379;52.134;11.576;2023-04-25T09:30:32;9.02;;;3.50;;
18499;SDS011;9379;52.134;11.576;2023-04-25T09:33:04;5.68;;;2.55;;
18499;SDS011;9379;52.134;11.576;2023-04-25T09:35:35;4.32;;;1.50;;
18499;SDS011;9379;52.134;11.576;2023-04-25T09:38:08;2.88;;;2.13;;
18499;SDS011;9379;52.134;11.576;2023-04-25T09:40:38;8.13;;;2.40;;
18499;SDS011;9379;52.134;11.576;2023-04-25T09:43:08;5.78;;;1.63;;
18499;SDS011;9379;52.134;11.576;2023-04-25T09:45:40;2.08;;;1.75;;
18499;SDS011;9379;52.134;11.576;2023-04-25T09:48:10;4.72;;;1.75;;
18499;SDS011;9379;52.134;11.576;2023-04-25T09:50:37;2.20;;;1.67;;
18499;SDS011;9379;52.134;11.576;2023-04-25T09:53:05;3.17;;;2.00;;
18499;SDS011;9379;52.134;11.576;2023-04-25T09:55:34;5.07;;;2.15;;
18499;SDS011;9379;52.134;11.576;2023-04-25T09:58:03;2.00;;;1.20;;
18499;SDS011;9379;52.134;11.576;2023-04-25T10:00:32;2.10;;;1.35;;
18499;SDS011;9379;52.134;11.576;2023-04-25T10:02:59;3.72;;;2.08;;
18499;SDS011;9379;52.134;11.576;2023-04-25T10:05:29;4.07;;;2.03;;
18499;SDS011;9379;52.134;11.576;2023-04-25T10:07:56;3.78;;;1.33;;
18499;SDS011;9379;52.134;11.576;2023-04-25T10:10:24;2.80;;;1.73;;
18499;SDS011;9379;52.134;11.576;2023-04-25T10:12:54;5.47;;;1.58;;
18499;SDS011;9379;52.134;11.576;2023-04-25T10:15:21;3.15;;;2.03;;
18499;SDS011;9379;52.134;11.576;2023-04-25T10:17:49;1.73;;;1.40;;
18499;SDS011;9379;52.134;11.576;2023-04-25T10:20:16;5.50;;;1.67;;
18499;SDS011;9379;52.134;11.576;2023-04-25T10:22:44;3.17;;;1.33;;
18499;SDS011;9379;52.134;11.576;2023-04-25T10:25:13;1.63;;;1.25;;
18499;SDS011;9379;52.134;11.576;2023-04-25T10:27:40;9.32;;;3.25;;
18499;SDS011;9379;52.134;11.576;2023-04-25T10:30:09;3.50;;;2.38;;
18499;SDS011;9379;52.134;11.576;2023-04-25T10:32:41;3.50;;;1.65;;
18499;SDS011;9379;52.134;11.576;2023-04-25T10:35:12;7.13;;;2.92;;
18499;SDS011;9379;52.134;11.576;2023-04-25T10:40:28;4.53;;;2.63;;
18499;SDS011;9379;52.134;11.576;2023-04-25T10:42:56;6.13;;;2.13;;
18499;SDS011;9379;52.134;11.576;2023-04-25T10:46:03;2.50;;;2.15;;
18499;SDS011;9379;52.134;11.576;2023-04-25T10:48:43;7.78;;;2.05;;
18499;SDS011;9379;52.134;11.576;2023-04-25T10:51:16;8.68;;;2.67;;
18499;SDS011;9379;52.134;11.576;2023-04-25T10:53:44;2.55;;;2.28;;
18499;SDS011;9379;52.134;11.576;2023-04-25T10:56:11;5.43;;;2.58;;
18499;SDS011;9379;52.134;11.576;2023-04-25T10:58:43;5.95;;;3.22;;
18499;SDS011;9379;52.134;11.576;2023-04-25T11:01:11;2.47;;;1.75;;
18499;SDS011;9379;52.134;11.576;2023-04-25T11:03:40;3.53;;;1.45;;
18499;SDS011;9379;52.134;11.576;2023-04-25T11:06:10;3.00;;;2.20;;
18499;SDS011;9379;52.134;11.576;2023-04-25T11:08:47;7.60;;;1.80;;
18499;SDS011;9379;52.134;11.576;2023-04-25T11:11:16;2.05;;;1.88;;
18499;SDS011;9379;52.134;11.576;2023-04-25T11:13:43;2.85;;;1.27;;
18499;SDS011;9379;52.134;11.576;2023-04-25T11:16:10;1.77;;;1.58;;
18499;SDS011;9379;52.134;11.576;2023-04-25T11:18:40;1.95;;;1.85;;
18499;SDS011;9379;52.134;11.576;2023-04-25T11:21:07;2.90;;;1.27;;
18499;SDS011;9379;52.134;11.576;2023-04-25T11:23:34;8.55;;;1.60;;
18499;SDS011;9379;52.134;11.576;2023-04-25T11:26:01;1.65;;;1.40;;
18499;SDS011;9379;52.134;11.576;2023-04-25T11:28:28;3.15;;;1.70;;
18499;SDS011;9379;52.134;11.576;2023-04-25T11:30:57;3.35;;;2.72;;
18499;SDS011;9379;52.134;11.576;2023-04-25T11:33:26;3.95;;;1.73;;
18499;SDS011;9379;52.134;11.576;2023-04-25T11:35:53;5.63;;;3.03;;
18499;SDS011;9379;52.134;11.576;2023-04-25T11:38:22;2.22;;;1.83;;
18499;SDS011;9379;52.134;11.576;2023-04-25T11:40:49;2.88;;;2.55;;
18499;SDS011;9379;52.134;11.576;2023-04-25T11:43:17;5.97;;;1.85;;
18499;SDS011;9379;52.134;11.576;2023-04-25T11:45:46;1.55;;;1.27;;
18499;SDS011;9379;52.134;11.576;2023-04-25T11:48:14;5.18;;;1.25;;
18499;SDS011;9379;52.134;11.576;2023-04-25T11:50:42;6.95;;;1.63;;
18499;SDS011;9379;52.134;11.576;2023-04-25T11:53:09;1.27;;;1.13;;
18499;SDS011;9379;52.134;11.576;2023-04-25T11:55:36;4.25;;;1.73;;
18499;SDS011;9379;52.134;11.576;2023-04-25T11:58:04;1.42;;;1.20;;
18499;SDS011;9379;52.134;11.576;2023-04-25T12:00:31;9.05;;;4.07;;
18499;SDS011;9379;52.134;11.576;2023-04-25T12:02:58;3.83;;;1.67;;
18499;SDS011;9379;52.134;11.576;2023-04-25T12:05:25;2.30;;;2.05;;
18499;SDS011;9379;52.134;11.576;2023-04-25T12:07:55;1.48;;;1.38;;
18499;SDS011;9379;52.134;11.576;2023-04-25T12:10:23;8.45;;;2.13;;
18499;SDS011;9379;52.134;11.576;2023-04-25T12:12:51;1.10;;;1.00;;
18499;SDS011;9379;52.134;11.576;2023-04-25T12:15:22;2.05;;;1.77;;
18499;SDS011;9379;52.134;11.576;2023-04-25T12:17:52;3.72;;;1.80;;
18499;SDS011;9379;52.134;11.576;2023-04-25T12:20:20;2.80;;;1.80;;
18499;SDS011;9379;52.134;11.576;2023-04-25T12:22:50;1.02;;;0.93;;
18499;SDS011;9379;52.134;11.576;2023-04-25T12:25:38;2.88;;;1.63;;
18499;SDS011;9379;52.134;11.576;2023-04-25T12:28:10;4.07;;;2.22;;
18499;SDS011;9379;52.134;11.576;2023-04-25T12:30:51;12.25;;;2.05;;
18499;SDS011;9379;52.134;11.576;2023-04-25T12:33:20;1.95;;;1.38;;
18499;SDS011;9379;52.134;11.576;2023-04-25T12:35:47;4.55;;;1.13;;
18499;SDS011;9379;52.134;11.576;2023-04-25T12:38:20;2.45;;;1.60;;
18499;SDS011;9379;52.134;11.576;2023-04-25T12:40:48;3.67;;;1.52;;
18499;SDS011;9379;52.134;11.576;2023-04-25T12:43:15;4.43;;;1.70;;
18499;SDS011;9379;52.134;11.576;2023-04-25T12:45:42;1.55;;;1.45;;
18499;SDS011;9379;52.134;11.576;2023-04-25T12:48:09;1.30;;;1.20;;
18499;SDS011;9379;52.134;11.576;2023-04-25T12:50:36;2.80;;;1.55;;
18499;SDS011;9379;52.134;11.576;2023-04-25T12:53:02;2.17;;;1.27;;
18499;SDS011;9379;52.134;11.576;2023-04-25T12:55:30;1.42;;;1.33;;
18499;SDS011;9379;52.134;11.576;2023-04-25T12:57:58;3.45;;;1.50;;
18499;SDS011;9379;52.134;11.576;2023-04-25T13:00:25;9.55;;;2.15;;
18499;SDS011;9379;52.134;11.576;2023-04-25T13:02:52;4.50;;;1.27;;
18499;SDS011;9379;52.134;11.576;2023-04-25T13:05:18;4.97;;;1.15;;
18499;SDS011;9379;52.134;11.576;2023-04-25T13:07:45;3.65;;;1.40;;
18499;SDS011;9379;52.134;11.576;2023-04-25T13:10:12;1.58;;;1.48;;
18499;SDS011;9379;52.134;11.576;2023-04-25T13:12:39;1.80;;;1.70;;
18499;SDS011;9379;52.134;11.576;2023-04-25T13:15:08;3.22;;;1.25;;
18499;SDS011;9379;52.134;11.576;2023-04-25T13:17:36;2.90;;;2.13;;
18499;SDS011;9379;52.134;11.576;2023-04-25T13:20:03;1.70;;;1.60;;
18499;SDS011;9379;52.134;11.576;2023-04-25T13:22:33;1.90;;;1.70;;
18499;SDS011;9379;52.134;11.576;2023-04-25T13:25:01;9.05;;;2.63;;
18499;SDS011;9379;52.134;11.576;2023-04-25T13:27:29;2.17;;;1.60;;
18499;SDS011;9379;52.134;11.576;2023-04-25T13:29:57;3.70;;;1.23;;
18499;SDS011;9379;52.134;11.576;2023-04-25T13:32:25;2.72;;;1.13;;
18499;SDS011;9379;52.134;11.576;2023-04-25T13:34:52;1.58;;;1.00;;
18499;SDS011;9379;52.134;11.576;2023-04-25T13:37:19;1.45;;;1.35;;
18499;SDS011;9379;52.134;11.576;2023-04-25T13:39:49;2.60;;;1.25;;
18499;SDS011;9379;52.134;11.576;2023-04-25T13:42:16;6.93;;;2.90;;
18499;SDS011;9379;52.134;11.576;2023-04-25T13:44:42;0.95;;;0.80;;
18499;SDS011;9379;52.134;11.576;2023-04-25T13:47:09;1.75;;;1.60;;
18499;SDS011;9379;52.134;11.576;2023-04-25T13:49:38;2.28;;;1.70;;
18499;SDS011;9379;52.134;11.576;2023-04-25T13:52:05;4.63;;;1.27;;
18499;SDS011;9379;52.134;11.576;2023-04-25T13:54:32;2.45;;;1.42;;
18499;SDS011;9379;52.134;11.576;2023-04-25T13:56:59;1.48;;;1.38;;
18499;SDS011;9379;52.134;11.576;2023-04-25T13:59:27;2.83;;;1.27;;
18499;SDS011;9379;52.134;11.576;2023-04-25T14:01:53;1.75;;;0.90;;
18499;SDS011;9379;52.134;11.576;2023-04-25T14:04:20;3.70;;;1.58;;
18499;SDS011;9379;52.134;11.576;2023-04-25T14:06:48;3.03;;;1.23;;
18499;SDS011;9379;52.134;11.576;2023-04-25T14:09:15;1.75;;;1.65;;
18499;SDS011;9379;52.134;11.576;2023-04-25T14:11:42;1.42;;;1.02;;
18499;SDS011;9379;52.134;11.576;2023-04-25T14:14:09;5.70;;;2.08;;
18499;SDS011;9379;52.134;11.576;2023-04-25T14:16:37;6.15;;;1.48;;
18499;SDS011;9379;52.134;11.576;2023-04-25T14:19:04;2.08;;;1.00;;
18499;SDS011;9379;52.134;11.576;2023-04-25T14:21:31;3.53;;;0.82;;
18499;SDS011;9379;52.134;11.576;2023-04-25T14:24:00;0.75;;;0.75;;
18499;SDS011;9379;52.134;11.576;2023-04-25T14:26:27;1.17;;;1.08;;
18499;SDS011;9379;52.134;11.576;2023-04-25T14:28:54;5.65;;;2.40;;
18499;SDS011;9379;52.134;11.576;2023-04-25T14:31:20;1.38;;;1.27;;
18499;SDS011;9379;52.134;11.576;2023-04-25T14:33:47;1.45;;;1.35;;
18499;SDS011;9379;52.134;11.576;2023-04-25T14:36:14;2.90;;;1.67;;
18499;SDS011;9379;52.134;11.576;2023-04-25T14:38:40;2.45;;;1.90;;
18499;SDS011;9379;52.134;11.576;2023-04-25T14:41:09;1.35;;;1.25;;
18499;SDS011;9379;52.134;11.576;2023-04-25T14:43:36;1.00;;;1.00;;
18499;SDS011;9379;52.134;11.576;2023-04-25T14:46:05;3.22;;;1.60;;
18499;SDS011;9379;52.134;11.576;2023-04-25T14:48:32;1.70;;;0.73;;
18499;SDS011;9379;52.134;11.576;2023-04-25T14:50:59;1.00;;;0.88;;